createdAt,value
2018-10-19T00:01:04.850Z,53.53
2018-10-19T00:03:36.623Z,53.17
2018-10-19T00:06:06.287Z,54.77
2018-10-19T00:08:39.209Z,54.33
2018-10-19T00:11:08.480Z,56.60
2018-10-19T00:13:41.865Z,56.00
2018-10-19T00:16:10.581Z,50.73
2018-10-19T00:18:52.070Z,48.03
2018-10-19T00:21:22.593Z,53.60
2018-10-19T00:23:51.767Z,53.03
2018-10-19T00:26:20.496Z,56.97
2018-10-19T00:28:50.091Z,54.67
2018-10-19T00:31:18.867Z,54.07
2018-10-19T00:33:52.817Z,55.97
2018-10-19T00:36:21.802Z,59.13
2018-10-19T00:39:03.510Z,53.57
2018-10-19T00:41:32.416Z,55.20
2018-10-19T00:44:01.584Z,52.53
2018-10-19T00:46:30.280Z,51.13
2018-10-19T00:49:00.073Z,57.27
2018-10-19T00:51:29.261Z,55.97
2018-10-19T00:54:04.096Z,55.40
2018-10-19T00:56:33.545Z,49.60
2018-10-19T00:59:07.116Z,51.03
2018-10-19T01:01:36.336Z,43.63
2018-10-19T01:04:18.080Z,49.07
2018-10-19T01:06:47.526Z,43.97
2018-10-19T01:09:17.926Z,39.63
2018-10-19T01:11:47.124Z,42.27
2018-10-19T01:14:16.573Z,40.20
2018-10-19T01:16:45.753Z,39.83
2018-10-19T01:19:18.412Z,40.07
2018-10-19T01:21:47.856Z,36.40
2018-10-19T01:24:24.846Z,43.13
2018-10-19T01:26:54.052Z,40.83
2018-10-19T01:29:24.119Z,43.33
2018-10-19T01:31:53.336Z,38.03
2018-10-19T01:34:25.520Z,35.73
2018-10-19T01:36:54.472Z,34.83
2018-10-19T01:39:29.390Z,37.17
2018-10-19T01:41:58.095Z,36.20
2018-10-19T01:44:31.884Z,39.93
2018-10-19T01:47:01.082Z,35.47
2018-10-19T01:49:34.018Z,37.37
2018-10-19T01:52:03.208Z,34.60
2018-10-19T01:54:36.565Z,40.07
2018-10-19T01:57:06.039Z,42.40
2018-10-19T01:59:37.348Z,38.30
2018-10-19T02:02:07.027Z,40.57
2018-10-19T02:04:43.808Z,35.23
2018-10-19T02:07:12.999Z,36.20
2018-10-19T02:09:45.329Z,42.43
2018-10-19T02:12:14.760Z,38.77
2018-10-19T02:14:47.325Z,42.37
2018-10-19T02:17:16.502Z,43.97
2018-10-19T02:19:57.987Z,47.57
2018-10-19T02:22:27.186Z,49.97
2018-10-19T02:24:56.636Z,48.33
2018-10-19T02:27:25.334Z,49.90
2018-10-19T02:29:55.197Z,54.57
2018-10-19T02:32:24.201Z,50.80
2018-10-19T02:35:06.615Z,53.20
2018-10-19T02:37:35.640Z,59.40
2018-10-19T02:42:41.037Z,57.43
2018-10-19T02:45:10.819Z,60.13
2018-10-19T02:47:40.232Z,53.67
2018-10-19T02:50:09.747Z,54.47
2018-10-19T02:52:39.526Z,50.50
2018-10-19T02:55:11.351Z,62.20
2018-10-19T02:57:40.031Z,64.00
2018-10-19T03:00:21.792Z,57.10
2018-10-19T03:02:50.969Z,61.80
2018-10-19T03:05:19.917Z,61.17
2018-10-19T03:07:49.133Z,57.43
2018-10-19T03:10:18.743Z,58.50
2018-10-19T03:12:48.240Z,54.40
2018-10-19T03:15:21.009Z,58.90
2018-10-19T03:17:50.207Z,58.03
2018-10-19T03:20:23.639Z,60.87
2018-10-19T03:22:52.807Z,52.47
2018-10-19T03:25:25.872Z,59.37
2018-10-19T03:27:55.014Z,43.07
2018-10-19T03:30:28.505Z,47.57
2018-10-19T03:32:57.699Z,44.13
2018-10-19T03:35:31.152Z,40.07
2018-10-19T03:37:59.860Z,39.17
2018-10-19T03:40:33.614Z,36.67
2018-10-19T03:43:03.334Z,32.13
2018-10-19T03:45:35.701Z,34.73
2018-10-19T03:48:05.072Z,36.83
2018-10-19T03:50:45.908Z,34.37
2018-10-19T03:53:15.327Z,34.70
2018-10-19T03:55:44.339Z,36.10
2018-10-19T03:58:13.546Z,35.63
2018-10-19T04:00:45.909Z,37.60
2018-10-19T04:03:15.157Z,37.23
2018-10-19T04:05:47.641Z,38.23
2018-10-19T04:08:16.836Z,44.33
2018-10-19T04:10:50.147Z,47.27
2018-10-19T04:13:19.165Z,46.20
2018-10-19T04:15:52.593Z,50.40
2018-10-19T04:18:21.336Z,52.83
2018-10-19T04:20:55.618Z,53.37
2018-10-19T04:23:24.393Z,59.40
2018-10-19T04:25:58.304Z,56.53
2018-10-19T04:28:28.258Z,63.03
2018-10-19T04:31:01.993Z,62.40
2018-10-19T04:33:30.724Z,53.57
2018-10-19T04:36:06.311Z,58.43
2018-10-19T04:38:35.012Z,54.73
2018-10-19T04:41:09.148Z,65.27
2018-10-19T04:43:38.211Z,61.67
2018-10-19T04:46:12.349Z,59.93
2018-10-19T04:48:41.929Z,61.83
2018-10-19T04:51:15.921Z,57.87
2018-10-19T04:53:45.159Z,53.07
2018-10-19T04:56:18.185Z,71.00
2018-10-19T04:58:47.744Z,66.47
2018-10-19T05:01:20.501Z,63.13
2018-10-19T05:03:49.229Z,66.47
2018-10-19T05:06:22.814Z,62.60
2018-10-19T05:08:51.509Z,58.37
2018-10-19T05:11:24.793Z,65.77
2018-10-19T05:13:53.553Z,56.17
2018-10-19T05:16:35.945Z,62.73
2018-10-19T05:19:04.792Z,65.57
2018-10-19T05:21:34.525Z,51.17
2018-10-19T05:24:03.240Z,63.60
2018-10-19T05:26:31.968Z,58.40
2018-10-19T05:29:02.401Z,54.27
2018-10-19T05:31:35.424Z,53.87
2018-10-19T05:34:05.754Z,52.23
2018-10-19T05:36:37.877Z,56.83
2018-10-19T05:39:09.017Z,54.63
2018-10-19T05:41:39.428Z,53.30
2018-10-19T05:44:08.634Z,56.40
2018-10-19T05:46:42.960Z,51.20
2018-10-19T05:49:11.663Z,44.73
2018-10-19T05:51:53.346Z,55.40
2018-10-19T05:54:22.328Z,61.90
2018-10-19T05:56:51.063Z,55.03
2018-10-19T05:59:20.245Z,57.07
2018-10-19T06:01:52.122Z,69.27
2018-10-19T06:04:21.320Z,67.20
2018-10-19T06:06:54.557Z,62.37
2018-10-19T06:09:23.531Z,69.17
2018-10-19T06:11:57.629Z,77.57
2018-10-19T06:14:26.783Z,82.47
2018-10-19T06:17:01.058Z,76.10
2018-10-19T06:19:29.809Z,81.77
2018-10-19T06:22:04.045Z,80.60
2018-10-19T06:24:33.547Z,87.53
2018-10-19T06:27:05.476Z,89.10
2018-10-19T06:29:34.716Z,91.17
2018-10-19T06:32:08.628Z,88.73
2018-10-19T06:34:37.291Z,90.67
2018-10-19T06:37:11.747Z,92.33
2018-10-19T06:39:40.737Z,104.47
2018-10-19T06:42:15.266Z,93.60
2018-10-19T06:44:43.988Z,100.07
2018-10-19T06:47:18.276Z,102.23
2018-10-19T06:49:50.608Z,103.17
2018-10-19T06:52:21.469Z,111.37
2018-10-19T06:54:50.424Z,94.93
2018-10-19T06:57:23.696Z,101.87
2018-10-19T06:59:53.150Z,105.10
2018-10-19T07:02:25.503Z,84.37
2018-10-19T07:04:54.818Z,98.33
2018-10-19T07:07:36.013Z,85.87
2018-10-19T07:10:04.928Z,89.23
2018-10-19T07:12:33.624Z,92.50
2018-10-19T07:15:02.369Z,100.00
2018-10-19T07:17:33.068Z,91.70
2018-10-19T07:20:02.075Z,87.47
2018-10-19T07:22:35.129Z,97.37
2018-10-19T07:25:04.044Z,85.90
2018-10-19T07:27:38.353Z,81.53
2018-10-19T07:30:07.933Z,74.77
2018-10-19T07:32:40.807Z,73.77
2018-10-19T07:35:09.562Z,70.80
2018-10-19T07:37:43.636Z,70.07
2018-10-19T07:40:12.603Z,70.00
2018-10-19T07:42:47.013Z,57.07
2018-10-19T07:45:15.927Z,59.20
2018-10-19T07:47:49.259Z,64.80
2018-10-19T07:50:18.530Z,62.03
2018-10-19T07:52:53.895Z,54.90
2018-10-19T07:55:23.583Z,52.80
2018-10-19T07:57:58.858Z,55.40
2018-10-19T08:00:27.606Z,65.27
2018-10-19T08:02:59.153Z,74.90
2018-10-19T08:05:28.766Z,152.40
2018-10-19T08:08:02.464Z,240.37
2018-10-19T08:10:31.240Z,251.83
2018-10-19T08:13:04.683Z,95.47
2018-10-19T08:15:33.753Z,95.30
2018-10-19T08:18:07.710Z,69.70
2018-10-19T08:20:36.424Z,65.13
2018-10-19T08:23:11.875Z,65.10
2018-10-19T08:25:41.572Z,71.53
2018-10-19T08:28:15.559Z,63.43
2018-10-19T08:30:44.780Z,57.57
2018-10-19T08:33:15.921Z,55.80
2018-10-19T08:35:44.656Z,61.77
2018-10-19T08:38:19.186Z,66.27
2018-10-19T08:40:49.400Z,69.20
2018-10-19T08:43:21.372Z,55.73
2018-10-19T08:45:50.082Z,60.73
2018-10-19T08:48:24.765Z,52.70
2018-10-19T08:50:54.041Z,55.73
2018-10-19T08:53:27.533Z,57.23
2018-10-19T08:55:57.695Z,53.60
2018-10-19T08:58:29.359Z,55.57
2018-10-19T09:00:58.603Z,57.57
2018-10-19T09:03:31.013Z,52.37
2018-10-19T09:06:00.333Z,55.07
2018-10-19T09:08:33.574Z,61.83
2018-10-19T09:11:02.954Z,64.17
2018-10-19T09:13:37.379Z,66.97
2018-10-19T09:16:07.033Z,63.17
2018-10-19T09:18:40.425Z,62.10
2018-10-19T09:21:09.925Z,61.73
2018-10-19T09:23:42.294Z,68.13
2018-10-19T09:26:11.900Z,65.13
2018-10-19T09:28:45.071Z,64.90
2018-10-19T09:31:14.848Z,66.80
2018-10-19T09:33:47.145Z,61.23
2018-10-19T09:36:15.900Z,61.43
2018-10-19T09:38:50.536Z,60.17
2018-10-19T09:41:19.301Z,57.63
2018-10-19T09:43:52.864Z,53.40
2018-10-19T09:46:22.421Z,46.20
2018-10-19T09:48:57.025Z,56.60
2018-10-19T09:51:25.814Z,54.03
2018-10-19T09:53:59.375Z,57.73
2018-10-19T09:56:28.675Z,56.23
2018-10-19T09:59:02.760Z,53.67
2018-10-19T10:01:31.569Z,55.30
2018-10-19T10:04:06.447Z,54.63
2018-10-19T10:06:35.153Z,53.90
2018-10-19T10:09:11.571Z,54.00
2018-10-19T10:11:41.476Z,53.87
2018-10-19T10:14:13.002Z,51.93
2018-10-19T10:16:41.786Z,54.60
2018-10-19T10:19:14.338Z,48.83
2018-10-19T10:21:43.212Z,44.37
2018-10-19T10:24:16.813Z,49.33
2018-10-19T10:26:45.896Z,45.10
2018-10-19T10:29:19.246Z,42.67
2018-10-19T10:31:48.472Z,47.50
2018-10-19T10:34:20.430Z,45.67
2018-10-19T10:36:49.773Z,43.67
2018-10-19T10:39:24.401Z,47.93
2018-10-19T10:41:53.549Z,43.00
2018-10-19T10:44:26.740Z,46.17
2018-10-19T10:46:55.563Z,48.63
2018-10-19T10:49:28.649Z,44.93
2018-10-19T10:51:57.475Z,45.53
2018-10-19T10:54:30.685Z,45.93
2018-10-19T10:56:59.665Z,42.50
2018-10-19T10:59:33.601Z,42.00
2018-10-19T11:02:02.983Z,42.70
2018-10-19T11:04:36.313Z,43.40
2018-10-19T11:07:06.168Z,47.83
2018-10-19T11:09:39.270Z,43.80
2018-10-19T11:12:07.988Z,47.53
2018-10-19T11:14:42.890Z,50.83
2018-10-19T11:17:12.402Z,50.50
2018-10-19T11:19:53.322Z,49.43
2018-10-19T11:22:22.910Z,45.80
2018-10-19T11:24:52.258Z,44.80
2018-10-19T11:27:22.039Z,48.30
2018-10-19T11:29:53.205Z,44.57
2018-10-19T11:32:22.449Z,39.40
2018-10-19T11:34:54.045Z,47.13
2018-10-19T11:37:23.733Z,40.80
2018-10-19T11:40:08.801Z,47.43
2018-10-19T11:42:37.981Z,44.87
2018-10-19T11:45:06.807Z,41.10
2018-10-19T11:47:36.221Z,46.87
2018-10-19T11:50:06.305Z,42.93
2018-10-19T11:52:34.996Z,51.97
2018-10-19T11:55:06.380Z,45.27
2018-10-19T11:57:38.379Z,44.83
2018-10-19T12:00:12.900Z,47.87
2018-10-19T12:02:41.605Z,42.80
2018-10-19T12:05:15.049Z,42.47
2018-10-19T12:07:44.386Z,43.40
2018-10-19T12:10:16.914Z,47.87
2018-10-19T12:12:45.711Z,43.43
2018-10-19T12:15:18.787Z,45.20
2018-10-19T12:17:47.503Z,49.63
2018-10-19T12:20:20.716Z,46.70
2018-10-19T12:22:49.416Z,46.23
2018-10-19T12:25:23.527Z,46.27
2018-10-19T12:27:52.737Z,45.30
2018-10-19T12:30:26.032Z,45.80
2018-10-19T12:32:55.284Z,52.33
2018-10-19T12:35:30.729Z,52.90
2018-10-19T12:37:59.464Z,42.53
2018-10-19T12:40:32.028Z,44.10
2018-10-19T12:43:01.270Z,44.80
2018-10-19T12:46:45.337Z,42.90
2018-10-19T12:49:17.019Z,44.03
2018-10-19T12:51:46.959Z,42.77
2018-10-19T12:54:16.580Z,42.17
2018-10-19T12:56:45.801Z,42.23
2018-10-19T12:59:14.644Z,41.97
2018-10-19T13:01:43.411Z,38.57
2018-10-19T13:04:12.412Z,39.50
2018-10-19T13:06:45.147Z,38.90
2018-10-19T13:09:15.363Z,42.07
2018-10-19T13:11:47.958Z,38.77
2018-10-19T13:14:16.960Z,36.40
2018-10-19T13:16:50.887Z,36.30
2018-10-19T13:19:19.595Z,38.73
2018-10-19T13:21:54.327Z,38.03
2018-10-19T13:24:23.713Z,37.40
2018-10-19T13:26:55.667Z,36.50
2018-10-19T13:29:24.398Z,34.23
2018-10-19T13:31:58.720Z,39.47
2018-10-19T13:34:27.762Z,37.40
2018-10-19T13:37:08.819Z,39.43
2018-10-19T13:39:38.526Z,39.70
2018-10-19T13:42:08.449Z,38.27
2018-10-19T13:44:37.633Z,39.73
2018-10-19T13:47:08.731Z,37.00
2018-10-19T13:49:37.494Z,38.53
2018-10-19T13:52:11.693Z,33.27
2018-10-19T13:54:40.694Z,35.47
2018-10-19T13:57:22.266Z,36.17
2018-10-19T13:59:51.261Z,33.97
2018-10-19T14:02:20.465Z,35.23
2018-10-19T14:04:50.067Z,34.13
2018-10-19T14:07:19.226Z,33.73
2018-10-19T14:09:48.421Z,34.30
2018-10-19T14:12:21.972Z,34.23
2018-10-19T14:14:52.667Z,33.50
2018-10-19T14:17:24.565Z,33.27
2018-10-19T14:19:54.510Z,35.33
2018-10-19T14:22:27.181Z,34.20
2018-10-19T14:24:56.389Z,38.87
2018-10-19T14:28:31.256Z,36.13
2018-10-19T14:31:00.490Z,36.60
2018-10-19T14:33:31.138Z,30.63
2018-10-19T14:36:01.154Z,35.47
2018-10-19T14:38:33.592Z,33.83
2018-10-19T14:41:02.716Z,35.83
2018-10-19T14:43:36.354Z,44.27
2018-10-19T14:46:05.751Z,39.57
2018-10-19T14:48:47.779Z,39.23
2018-10-19T14:51:17.452Z,37.17
2018-10-19T14:53:46.313Z,38.43
2018-10-19T14:56:17.093Z,38.63
2018-10-19T14:58:46.080Z,36.00
2018-10-19T15:01:15.452Z,38.03
2018-10-19T15:03:47.340Z,41.80
2018-10-19T15:06:16.642Z,41.20
2018-10-19T15:08:50.634Z,35.97
2018-10-19T15:11:19.994Z,38.50
2018-10-19T15:13:53.668Z,36.40
2018-10-19T15:16:23.031Z,37.17
2018-10-19T15:18:55.683Z,41.50
2018-10-19T15:21:25.578Z,42.33
2018-10-19T15:23:58.681Z,40.40
2018-10-19T15:26:27.811Z,37.67
2018-10-19T15:29:03.249Z,37.40
2018-10-19T15:31:32.439Z,41.77
2018-10-19T15:34:07.070Z,39.80
2018-10-19T15:36:36.307Z,37.40
2018-10-19T15:39:18.144Z,39.77
2018-10-19T15:41:47.132Z,36.80
2018-10-19T15:44:16.366Z,36.97
2018-10-19T15:46:48.741Z,39.67
2018-10-19T15:49:17.760Z,39.63
2018-10-19T15:51:47.097Z,41.47
2018-10-19T15:54:17.289Z,36.13
2018-10-19T15:56:47.436Z,41.07
2018-10-19T15:59:20.617Z,41.33
2018-10-19T16:01:49.834Z,38.20
2018-10-19T16:04:22.101Z,41.13
2018-10-19T16:06:51.509Z,42.43
2018-10-19T16:09:25.055Z,37.57
2018-10-19T16:11:54.075Z,45.33
2018-10-19T16:14:28.489Z,39.47
2018-10-19T16:16:57.706Z,41.73
2018-10-19T16:19:41.701Z,39.50
2018-10-19T16:22:10.402Z,43.00
2018-10-19T16:24:39.640Z,40.33
2018-10-19T16:27:09.352Z,42.30
2018-10-19T16:29:38.828Z,39.53
2018-10-19T16:32:07.558Z,44.73
2018-10-19T16:34:37.984Z,43.27
2018-10-19T16:37:08.120Z,44.37
2018-10-19T16:39:39.556Z,42.77
2018-10-19T16:42:08.586Z,40.40
2018-10-19T16:44:43.208Z,47.20
2018-10-19T16:47:11.913Z,46.07
2018-10-19T16:49:46.824Z,46.00
2018-10-19T16:52:16.153Z,45.03
2018-10-19T16:54:48.298Z,42.13
2018-10-19T16:57:17.012Z,39.73
2018-10-19T16:59:58.719Z,41.43
2018-10-19T17:02:28.692Z,43.33
2018-10-19T17:04:58.503Z,35.50
2018-10-19T17:07:27.185Z,35.83
2018-10-19T17:09:56.458Z,37.87
2018-10-19T17:12:25.384Z,38.13
2018-10-19T17:14:59.843Z,32.77
2018-10-19T17:17:29.668Z,34.33
2018-10-19T17:20:04.561Z,34.30
2018-10-19T17:22:33.777Z,43.03
2018-10-19T17:25:06.857Z,33.57
2018-10-19T17:27:36.284Z,36.47
2018-10-19T17:30:12.485Z,39.90
2018-10-19T17:32:42.231Z,37.53
2018-10-19T17:35:14.551Z,35.27
2018-10-19T17:37:43.326Z,36.13
2018-10-19T17:40:16.027Z,37.47
2018-10-19T17:42:45.271Z,35.40
2018-10-19T17:45:16.979Z,33.90
2018-10-19T17:47:46.665Z,38.53
2018-10-19T17:50:18.881Z,36.20
2018-10-19T17:52:47.592Z,39.83
2018-10-19T17:55:23.502Z,39.00
2018-10-19T17:57:53.174Z,34.93
2018-10-19T18:00:25.230Z,36.97
2018-10-19T18:02:54.473Z,35.10
2018-10-19T18:05:28.235Z,40.90
2018-10-19T18:07:57.922Z,39.00
2018-10-19T18:10:30.519Z,36.53
2018-10-19T18:12:59.715Z,39.10
2018-10-19T18:15:32.823Z,31.27
2018-10-19T18:18:01.552Z,33.93
2018-10-19T18:20:36.895Z,39.43
2018-10-19T18:23:06.332Z,34.03
2018-10-19T18:25:39.092Z,40.23
2018-10-19T18:28:09.448Z,40.37
2018-10-19T18:30:41.924Z,35.57
2018-10-19T18:33:11.229Z,33.77
2018-10-19T18:35:44.769Z,34.03
2018-10-19T18:38:13.997Z,38.73
2018-10-19T18:40:45.438Z,39.20
2018-10-19T18:43:15.264Z,35.87
2018-10-19T18:45:48.338Z,41.80
2018-10-19T18:48:17.597Z,33.87
2018-10-19T18:50:54.051Z,34.77
2018-10-19T18:53:22.753Z,37.20
2018-10-19T18:55:56.597Z,34.83
2018-10-19T18:58:25.869Z,39.13
2018-10-19T19:00:57.623Z,37.57
2018-10-19T19:03:26.656Z,32.37
2018-10-19T19:06:00.937Z,36.50
2018-10-19T19:08:29.678Z,38.40
2018-10-19T19:11:10.776Z,38.27
2018-10-19T19:13:45.596Z,44.57
2018-10-19T19:16:19.506Z,40.83
2018-10-19T19:18:49.485Z,43.43
2018-10-19T19:21:20.001Z,42.53
2018-10-19T19:23:54.254Z,38.23
2018-10-19T19:26:24.790Z,42.07
2018-10-19T19:28:54.013Z,39.13
2018-10-19T19:31:23.278Z,40.90
2018-10-19T19:33:57.901Z,37.70
2018-10-19T19:36:27.212Z,43.73
2018-10-19T19:38:56.739Z,43.83
2018-10-19T19:41:30.905Z,41.97
2018-10-19T19:43:59.966Z,40.60
2018-10-19T19:46:28.804Z,39.03
2018-10-19T19:49:03.387Z,43.50
2018-10-19T19:51:32.045Z,34.63
2018-10-19T19:54:01.250Z,45.43
2018-10-19T19:56:30.808Z,39.67
2018-10-19T19:59:01.489Z,43.40
2018-10-19T20:01:31.275Z,36.80
2018-10-19T20:04:00.816Z,40.07
2018-10-19T20:06:34.463Z,40.50
2018-10-19T20:09:04.832Z,44.23
2018-10-19T20:11:35.123Z,40.60
2018-10-19T20:14:04.413Z,44.43
2018-10-19T20:16:38.565Z,41.37
2018-10-19T20:19:07.550Z,37.83
2018-10-19T20:21:40.356Z,37.00
2018-10-19T20:24:10.035Z,40.90
2018-10-19T20:26:43.211Z,44.43
2018-10-19T20:29:12.887Z,38.97
2018-10-19T20:31:46.110Z,38.53
2018-10-19T20:34:15.578Z,45.33
2018-10-19T20:36:49.197Z,40.20
2018-10-19T20:39:18.437Z,40.00
2018-10-19T20:41:51.941Z,44.43
2018-10-19T20:44:21.915Z,44.47
2018-10-19T20:46:56.949Z,39.67
2018-10-19T20:49:26.233Z,42.20
2018-10-19T20:51:58.858Z,44.17
2018-10-19T20:54:28.114Z,50.33
2018-10-19T20:57:02.049Z,45.20
2018-10-19T20:59:33.717Z,45.43
2018-10-19T21:02:05.359Z,46.87
2018-10-19T21:04:35.487Z,45.60
2018-10-19T21:07:06.916Z,46.77
2018-10-19T21:09:36.118Z,40.03
2018-10-19T21:12:10.954Z,44.93
2018-10-19T21:14:39.929Z,56.53
2018-10-19T21:17:13.944Z,50.23
2018-10-19T21:19:43.128Z,50.70
2018-10-19T21:22:15.876Z,51.20
2018-10-19T21:24:44.556Z,58.07
2018-10-19T21:27:19.361Z,54.93
2018-10-19T21:29:48.706Z,57.00
2018-10-19T21:32:21.733Z,55.57
2018-10-19T21:34:51.397Z,62.73
2018-10-19T21:37:33.145Z,59.43
2018-10-19T21:40:02.627Z,54.40
2018-10-19T21:42:31.874Z,60.13
2018-10-19T21:45:01.128Z,50.60
2018-10-19T21:47:30.167Z,68.67
2018-10-19T21:49:59.361Z,59.63
2018-10-19T21:52:32.515Z,58.30
2018-10-19T21:55:02.973Z,65.67
2018-10-19T21:57:34.246Z,63.67
2018-10-19T22:00:03.465Z,69.27
2018-10-19T22:02:37.073Z,67.70
2018-10-19T22:05:06.744Z,66.13
2018-10-19T22:07:39.897Z,63.77
2018-10-19T22:10:09.411Z,65.73
2018-10-19T22:12:42.478Z,61.90
2018-10-19T22:15:12.166Z,63.73
2018-10-19T22:17:44.366Z,61.07
2018-10-19T22:20:13.060Z,61.57
2018-10-19T22:22:46.501Z,62.30
2018-10-19T22:25:15.573Z,58.10
2018-10-19T22:27:52.188Z,70.80
2018-10-19T22:30:20.888Z,64.10
2018-10-19T22:32:52.106Z,62.87
2018-10-19T22:35:20.825Z,68.63
2018-10-19T22:37:54.476Z,60.30
2018-10-19T22:40:23.276Z,70.83
2018-10-19T22:42:57.943Z,68.07
2018-10-19T22:45:27.665Z,68.30
2018-10-19T22:48:02.130Z,71.20
2018-10-19T22:50:31.777Z,68.57
2018-10-19T22:53:05.235Z,63.93
2018-10-19T22:55:34.906Z,64.67
2018-10-19T22:58:07.981Z,66.67
2018-10-19T23:00:36.718Z,68.17
2018-10-19T23:03:12.645Z,69.27
2018-10-19T23:05:41.636Z,72.43
2018-10-19T23:08:14.732Z,65.60
2018-10-19T23:10:44.109Z,63.97
2018-10-19T23:13:16.334Z,65.07
2018-10-19T23:15:44.974Z,72.73
2018-10-19T23:18:17.994Z,61.47
2018-10-19T23:20:47.449Z,73.10
2018-10-19T23:23:21.166Z,66.33
2018-10-19T23:25:50.757Z,72.20
2018-10-19T23:28:24.781Z,69.83
2018-10-19T23:30:53.581Z,71.10
2018-10-19T23:33:27.127Z,70.63
2018-10-19T23:35:56.127Z,61.17
2018-10-19T23:38:29.829Z,76.00
2018-10-19T23:40:59.018Z,70.60
2018-10-19T23:43:30.663Z,70.83
2018-10-19T23:45:59.918Z,67.80
2018-10-19T23:48:32.852Z,62.30
2018-10-19T23:51:02.469Z,74.90
2018-10-19T23:53:35.140Z,58.87
2018-10-19T23:56:04.553Z,69.80
2018-10-19T23:58:45.395Z,71.60
